sensor_id;sensor_type;location;lat;lon;timestamp;pressure;altitude;pressure_sealevel;temperature;humidity
76687;BME280;65615;47.378;19.344;2023-12-20T05:32:10;100027.53;;;-0.56;100.00
76687;BME280;65615;47.378;19.344;2023-12-20T05:36:14;100027.53;;;-0.56;100.00
76687;BME280;65615;47.378;19.344;2023-12-20T05:40:17;100006.97;;;-1.01;100.00
76687;BME280;65615;47.378;19.344;2023-12-20T05:44:20;100003.28;;;-1.11;100.00
76687;BME280;65615;47.378;19.344;2023-12-20T05:48:23;99981.41;;;-1.21;100.00
76687;BME280;65615;47.378;19.344;2023-12-20T05:52:26;99983.97;;;-1.35;100.00
76687;BME280;65615;47.378;19.344;2023-12-20T05:56:29;99989.56;;;-1.13;100.00
76687;BME280;65615;47.378;19.344;2023-12-20T06:00:32;100005.00;;;-1.26;100.00
76687;BME280;65615;47.378;19.344;2023-12-20T06:04:35;100021.03;;;-1.05;100.00
76687;BME280;65615;47.378;19.344;2023-12-20T06:08:38;100030.25;;;-1.29;100.00
76687;BME280;65615;47.378;19.344;2023-12-20T06:12:41;100046.94;;;-1.19;100.00
76687;BME280;65615;47.378;19.344;2023-12-20T06:16:45;100041.91;;;-1.22;100.00
76687;BME280;65615;47.378;19.344;2023-12-20T06:20:48;100036.72;;;-1.22;100.00
76687;BME280;65615;47.378;19.344;2023-12-20T06:24:51;100033.22;;;-1.21;100.00
76687;BME280;65615;47.378;19.344;2023-12-20T06:28:54;100017.81;;;-1.09;100.00
76687;BME280;65615;47.378;19.344;2023-12-20T06:32:58;100002.16;;;-1.07;100.00
76687;BME280;65615;47.378;19.344;2023-12-20T06:37:02;99990.56;;;-1.16;100.00
76687;BME280;65615;47.378;19.344;2023-12-20T06:41:05;99983.81;;;-1.32;100.00
76687;BME280;65615;47.378;19.344;2023-12-20T06:45:11;99983.13;;;-1.36;100.00
76687;BME280;65615;47.378;19.344;2023-12-20T06:49:15;99987.31;;;-1.33;100.00
76687;BME280;65615;47.378;19.344;2023-12-20T06:53:18;100000.66;;;-1.25;100.00
76687;BME280;65615;47.378;19.344;2023-12-20T06:57:20;99988.88;;;-1.45;100.00
76687;BME280;65615;47.378;19.344;2023-12-20T07:01:24;99980.09;;;-1.28;100.00
76687;BME280;65615;47.378;19.344;2023-12-20T07:05:27;99980.28;;;-1.31;100.00
76687;BME280;65615;47.378;19.344;2023-12-20T07:09:30;99984.69;;;-1.47;100.00
76687;BME280;65615;47.378;19.344;2023-12-20T07:13:33;100000.81;;;-1.28;100.00
76687;BME280;65615;47.378;19.344;2023-12-20T07:17:37;100026.56;;;-1.25;100.00
76687;BME280;65615;47.378;19.344;2023-12-20T07:21:40;100044.31;;;-1.33;100.00
76687;BME280;65615;47.378;19.344;2023-12-20T07:25:43;100055.19;;;-1.42;100.00
76687;BME280;65615;47.378;19.344;2023-12-20T07:29:46;100058.78;;;-1.15;100.00
76687;BME280;65615;47.378;19.344;2023-12-20T07:33:49;100046.38;;;-1.10;100.00
76687;BME280;65615;47.378;19.344;2023-12-20T07:37:52;100039.19;;;-1.05;100.00
76687;BME280;65615;47.378;19.344;2023-12-20T07:41:55;100036.25;;;-0.99;100.00
76687;BME280;65615;47.378;19.344;2023-12-20T07:46:09;100042.88;;;-1.09;100.00
76687;BME280;65615;47.378;19.344;2023-12-20T07:50:13;100044.56;;;-0.94;100.00
76687;BME280;65615;47.378;19.344;2023-12-20T07:54:16;100030.34;;;-0.73;100.00
76687;BME280;65615;47.378;19.344;2023-12-20T07:58:19;100040.50;;;-0.70;100.00
76687;BME280;65615;47.378;19.344;2023-12-20T08:02:24;100035.69;;;-0.76;100.00
76687;BME280;65615;47.378;19.344;2023-12-20T08:06:27;100029.97;;;-0.67;100.00
76687;BME280;65615;47.378;19.344;2023-12-20T08:10:31;100029.78;;;-0.64;100.00
76687;BME280;65615;47.378;19.344;2023-12-20T08:14:34;100011.16;;;-0.28;100.00
76687;BME280;65615;47.378;19.344;2023-12-20T08:18:37;100022.34;;;-0.28;100.00
76687;BME280;65615;47.378;19.344;2023-12-20T08:22:40;100022.00;;;-0.50;100.00
76687;BME280;65615;47.378;19.344;2023-12-20T08:26:43;100020.13;;;-0.48;100.00
76687;BME280;65615;47.378;19.344;2023-12-20T08:30:47;100020.88;;;-0.60;100.00
76687;BME280;65615;47.378;19.344;2023-12-20T08:34:50;100012.44;;;-0.49;100.00
76687;BME280;65615;47.378;19.344;2023-12-20T08:38:53;100023.47;;;-0.46;100.00
76687;BME280;65615;47.378;19.344;2023-12-20T08:42:58;100009.38;;;-0.42;100.00
76687;BME280;65615;47.378;19.344;2023-12-20T08:47:01;100014.41;;;-0.39;100.00
76687;BME280;65615;47.378;19.344;2023-12-20T08:51:04;100011.53;;;-0.34;100.00
76687;BME280;65615;47.378;19.344;2023-12-20T08:55:10;100018.28;;;-0.60;100.00
76687;BME280;65615;47.378;19.344;2023-12-20T08:59:16;100012.34;;;-0.34;100.00
76687;BME280;65615;47.378;19.344;2023-12-20T09:03:28;100015.50;;;-0.29;100.00
76687;BME280;65615;47.378;19.344;2023-12-20T09:07:31;100023.09;;;-0.68;100.00
76687;BME280;65615;47.378;19.344;2023-12-20T09:11:52;100011.56;;;-0.62;100.00
76687;BME280;65615;47.378;19.344;2023-12-20T09:16:02;100011.59;;;-0.50;100.00
76687;BME280;65615;47.378;19.344;2023-12-20T09:20:15;100027.75;;;-0.59;100.00
76687;BME280;65615;47.378;19.344;2023-12-20T09:24:18;100006.25;;;-0.61;100.00
76687;BME280;65615;47.378;19.344;2023-12-20T09:28:29;100005.31;;;-0.46;100.00
76687;BME280;65615;47.378;19.344;2023-12-20T09:32:38;100008.66;;;-0.58;100.00
76687;BME280;65615;47.378;19.344;2023-12-20T09:36:43;100003.25;;;-0.27;100.00
76687;BME280;65615;47.378;19.344;2023-12-20T09:40:52;100004.91;;;-0.26;100.00
76687;BME280;65615;47.378;19.344;2023-12-20T09:45:10;99995.50;;;-0.41;100.00
76687;BME280;65615;47.378;19.344;2023-12-20T09:49:22;99977.06;;;-0.10;100.00
76687;BME280;65615;47.378;19.344;2023-12-20T09:53:25;99971.91;;;-0.24;100.00
76687;BME280;65615;47.378;19.344;2023-12-20T09:57:32;99966.94;;;-0.27;100.00
76687;BME280;65615;47.378;19.344;2023-12-20T10:01:39;99959.41;;;0.10;100.00
76687;BME280;65615;47.378;19.344;2023-12-20T10:05:43;99950.59;;;0.25;100.00
76687;BME280;65615;47.378;19.344;2023-12-20T10:09:51;99939.06;;;0.29;100.00
76687;BME280;65615;47.378;19.344;2023-12-20T10:13:59;99962.78;;;0.37;100.00
76687;BME280;65615;47.378;19.344;2023-12-20T10:18:05;99962.37;;;0.43;100.00
76687;BME280;65615;47.378;19.344;2023-12-20T10:22:09;99952.63;;;0.34;100.00
76687;BME280;65615;47.378;19.344;2023-12-20T10:26:19;99953.66;;;0.44;100.00
76687;BME280;65615;47.378;19.344;2023-12-20T10:30:23;99937.06;;;0.59;100.00
76687;BME280;65615;47.378;19.344;2023-12-20T10:34:33;99927.94;;;0.66;100.00
76687;BME280;65615;47.378;19.344;2023-12-20T10:38:43;99929.91;;;1.00;100.00
76687;BME280;65615;47.378;19.344;2023-12-20T10:42:49;99931.00;;;1.21;100.00
76687;BME280;65615;47.378;19.344;2023-12-20T10:46:56;99918.84;;;1.09;100.00
76687;BME280;65615;47.378;19.344;2023-12-20T10:51:01;99906.81;;;1.44;100.00
76687;BME280;65615;47.378;19.344;2023-12-20T10:55:05;99893.81;;;1.08;100.00
76687;BME280;65615;47.378;19.344;2023-12-20T10:59:08;99873.78;;;1.21;100.00
76687;BME280;65615;47.378;19.344;2023-12-20T11:03:20;99849.34;;;1.47;100.00
76687;BME280;65615;47.378;19.344;2023-12-20T11:07:50;99855.00;;;1.41;100.00
76687;BME280;65615;47.378;19.344;2023-12-20T11:12:10;99866.69;;;1.36;100.00
76687;BME280;65615;47.378;19.344;2023-12-20T11:16:15;99867.44;;;1.49;100.00
76687;BME280;65615;47.378;19.344;2023-12-20T11:20:38;99874.78;;;1.31;100.00
76687;BME280;65615;47.378;19.344;2023-12-20T11:24:44;99876.09;;;1.13;100.00
76687;BME280;65615;47.378;19.344;2023-12-20T11:28:48;99873.84;;;0.96;100.00
76687;BME280;65615;47.378;19.344;2023-12-20T11:32:51;99859.47;;;0.91;100.00
76687;BME280;65615;47.378;19.344;2023-12-20T11:36:59;99853.34;;;1.04;100.00
76687;BME280;65615;47.378;19.344;2023-12-20T11:41:05;99840.78;;;0.98;100.00
76687;BME280;65615;47.378;19.344;2023-12-20T11:45:14;99835.09;;;0.68;100.00
76687;BME280;65615;47.378;19.344;2023-12-20T11:49:25;99817.16;;;0.88;100.00
76687;BME280;65615;47.378;19.344;2023-12-20T11:53:28;99798.19;;;1.35;100.00
76687;BME280;65615;47.378;19.344;2023-12-20T11:57:33;99801.88;;;1.67;100.00
76687;BME280;65615;47.378;19.344;2023-12-20T12:01:36;99791.16;;;1.72;100.00
76687;BME280;65615;47.378;19.344;2023-12-20T12:05:40;99804.88;;;1.74;100.00
76687;BME280;65615;47.378;19.344;2023-12-20T12:09:43;99798.66;;;1.99;100.00
76687;BME280;65615;47.378;19.344;2023-12-20T12:13:46;99800.78;;;1.94;100.00
76687;BME280;65615;47.378;19.344;2023-12-20T12:17:53;99790.56;;;1.80;100.00
76687;BME280;65615;47.378;19.344;2023-12-20T12:22:07;99801.69;;;1.82;100.00
76687;BME280;65615;47.378;19.344;2023-12-20T12:26:16;99817.13;;;1.96;100.00
76687;BME280;65615;47.378;19.344;2023-12-20T12:30:20;99820.38;;;1.76;100.00
76687;BME280;65615;47.378;19.344;2023-12-20T12:34:23;99811.34;;;1.92;100.00
76687;BME280;65615;47.378;19.344;2023-12-20T12:38:26;99801.97;;;2.01;100.00
76687;BME280;65615;47.378;19.344;2023-12-20T12:42:29;99808.66;;;2.16;100.00
76687;BME280;65615;47.378;19.344;2023-12-20T12:46:32;99808.78;;;1.80;100.00
76687;BME280;65615;47.378;19.344;2023-12-20T12:50:35;99806.66;;;1.85;100.00
76687;BME280;65615;47.378;19.344;2023-12-20T12:54:39;99801.91;;;1.79;100.00
76687;BME280;65615;47.378;19.344;2023-12-20T12:58:42;99812.13;;;1.82;100.00
76687;BME280;65615;47.378;19.344;2023-12-20T13:02:45;99816.19;;;1.97;100.00
76687;BME280;65615;47.378;19.344;2023-12-20T13:06:48;99811.88;;;1.85;100.00
76687;BME280;65615;47.378;19.344;2023-12-20T13:10:51;99803.41;;;2.05;100.00
76687;BME280;65615;47.378;19.344;2023-12-20T13:14:54;99797.28;;;2.06;100.00
76687;BME280;65615;47.378;19.344;2023-12-20T13:18:57;99792.84;;;1.95;100.00
76687;BME280;65615;47.378;19.344;2023-12-20T13:23:00;99795.31;;;1.86;100.00
76687;BME280;65615;47.378;19.344;2023-12-20T13:27:03;99786.00;;;1.94;100.00
76687;BME280;65615;47.378;19.344;2023-12-20T13:31:06;99776.41;;;1.95;100.00
76687;BME280;65615;47.378;19.344;2023-12-20T13:35:09;99786.81;;;1.95;100.00
76687;BME280;65615;47.378;19.344;2023-12-20T13:39:13;99775.28;;;1.75;100.00
76687;BME280;65615;47.378;19.344;2023-12-20T13:43:16;99770.84;;;1.88;100.00
76687;BME280;65615;47.378;19.344;2023-12-20T13:47:23;99774.69;;;1.71;100.00
76687;BME280;65615;47.378;19.344;2023-12-20T13:51:27;99772.81;;;1.73;100.00
76687;BME280;65615;47.378;19.344;2023-12-20T13:55:29;99767.81;;;1.70;100.00
76687;BME280;65615;47.378;19.344;2023-12-20T13:59:33;99782.00;;;1.66;100.00
76687;BME280;65615;47.378;19.344;2023-12-20T14:03:36;99775.13;;;1.65;100.00
76687;BME280;65615;47.378;19.344;2023-12-20T14:07:39;99777.03;;;1.63;100.00
76687;BME280;65615;47.378;19.344;2023-12-20T14:11:42;99785.22;;;1.46;100.00
76687;BME280;65615;47.378;19.344;2023-12-20T14:15:45;99775.44;;;1.26;100.00
76687;BME280;65615;47.378;19.344;2023-12-20T14:19:49;99772.56;;;1.42;100.00
76687;BME280;65615;47.378;19.344;2023-12-20T14:23:52;99777.25;;;1.37;100.00
76687;BME280;65615;47.378;19.344;2023-12-20T14:27:56;99784.78;;;1.52;100.00
76687;BME280;65615;47.378;19.344;2023-12-20T14:31:59;99785.56;;;1.42;100.00
76687;BME280;65615;47.378;19.344;2023-12-20T14:36:04;99787.09;;;1.44;100.00
76687;BME280;65615;47.378;19.344;2023-12-20T14:40:08;99789.38;;;1.49;100.00
76687;BME280;65615;47.378;19.344;2023-12-20T14:44:18;99781.28;;;1.41;100.00
76687;BME280;65615;47.378;19.344;2023-12-20T14:48:21;99792.75;;;1.38;100.00
76687;BME280;65615;47.378;19.344;2023-12-20T14:52:24;99788.97;;;1.42;100.00
76687;BME280;65615;47.378;19.344;2023-12-20T14:56:27;99793.09;;;1.57;100.00
76687;BME280;65615;47.378;19.344;2023-12-20T15:00:29;99785.72;;;1.51;100.00
76687;BME280;65615;47.378;19.344;2023-12-20T15:04:33;99805.16;;;1.58;100.00
76687;BME280;65615;47.378;19.344;2023-12-20T15:08:35;99813.47;;;1.63;100.00
76687;BME280;65615;47.378;19.344;2023-12-20T15:12:38;99806.81;;;1.59;100.00
76687;BME280;65615;47.378;19.344;2023-12-20T15:16:41;99792.66;;;1.98;100.00
76687;BME280;65615;47.378;19.344;2023-12-20T15:20:44;99793.16;;;3.03;100.00
76687;BME280;65615;47.378;19.344;2023-12-20T15:24:47;99799.09;;;3.47;100.00
76687;BME280;65615;47.378;19.344;2023-12-20T15:28:51;99820.19;;;3.56;100.00
76687;BME280;65615;47.378;19.344;2023-12-20T15:32:53;99807.41;;;3.53;100.00
76687;BME280;65615;47.378;19.344;2023-12-20T15:36:57;99815.53;;;3.70;100.00
76687;BME280;65615;47.378;19.344;2023-12-20T15:41:00;99827.84;;;4.00;100.00
76687;BME280;65615;47.378;19.344;2023-12-20T15:45:05;99831.56;;;4.18;100.00
76687;BME280;65615;47.378;19.344;2023-12-20T15:49:08;99830.41;;;4.11;100.00
